Dix, Illinois
Current Conditions -  °F | °C
As of 6:35 PM on Monday 24 Nov 2014 (Local Time) from KMVN Reporting Station
Broken Clouds Broken Clouds  
Wind Chill: 34°   Ceiling: 8500
Heat Index: 37°   Visibility: 10mi
Dew Point: 25°   Wind: 5mph
Humidity: 60%   Direction: 240°WSW
Pressure: 29.92"   Gusts: NA
Location:  38.44°N, 88.94°W
Report Text: KMVN 250035Z AUTO 24004KT 10SM BKN085 03/M04 A2992 RMK AO1
Loading
Personal Weather Stations






























Interactive Weather Map New forecast layout! Learn more

10-Day Weather Forecast

Advertisements
Track Severe Weather on mobile